Time;durP1;ratioP1;P1;durP2;ratioP2;P2;SDS_P1;SDS_P2;PMS_P1;PMS_P2;Temp;Humidity;BMP_temperature;BMP_pressure;BME280_temperature;BME280_humidity;BME280_pressure;Samples;Min_cycle;Max_cycle;Signal;HPM_P1;HPM_P2
2023/01/30 00:01:44;;;;;;;7.68;3.13;;;4.40;99.90;;;;;;5063946;28;20470;-65
2023/01/30 00:04:12;;;;;;;8.20;1.95;;;4.40;99.90;;;;;;5062143;28;20121;-67
2023/01/30 00:06:43;;;;;;;7.13;2.08;;;4.40;99.90;;;;;;5059921;28;20546;-65
2023/01/30 00:09:13;;;;;;;6.70;1.77;;;4.40;99.90;;;;;;5063123;28;20055;-65
2023/01/30 00:11:41;;;;;;;;;;;4.40;99.90;;;;;;5061443;28;20067;-65
2023/01/30 00:14:08;;;;;;;7.55;2.35;;;4.40;99.90;;;;;;5059655;28;19920;-70
2023/01/30 00:16:35;;;;;;;12.85;3.13;;;4.40;99.90;;;;;;5070904;28;20736;-67
2023/01/30 00:19:02;;;;;;;9.35;3.00;;;4.40;99.90;;;;;;5059627;28;20526;-65
2023/01/30 00:21:29;;;;;;;8.43;3.38;;;4.40;99.90;;;;;;5062713;28;20471;-65
2023/01/30 00:23:56;;;;;;;6.82;2.92;;;4.40;99.90;;;;;;5057441;28;20088;-65
2023/01/30 00:26:23;;;;;;;7.00;1.63;;;4.40;99.90;;;;;;5061624;28;20098;-65
2023/01/30 00:28:50;;;;;;;9.10;2.20;;;4.40;99.90;;;;;;5060840;28;20064;-70
2023/01/30 00:31:17;;;;;;;6.47;2.10;;;4.50;99.90;;;;;;5058294;28;20047;-64
2023/01/30 00:33:44;;;;;;;10.02;3.42;;;4.50;99.90;;;;;;5060986;28;20101;-63
2023/01/30 00:36:11;;;;;;;6.82;1.48;;;4.50;99.90;;;;;;5061704;28;20068;-66
2023/01/30 00:38:37;;;;;;;5.13;2.00;;;4.50;99.90;;;;;;5060154;28;20171;-68
2023/01/30 00:41:06;;;;;;;6.15;1.30;;;4.50;99.90;;;;;;5062940;28;20067;-64
2023/01/30 00:49:18;;;;;;;4.28;1.55;;;4.50;99.90;;;;;;5061296;28;20141;-63
2023/01/30 00:51:45;;;;;;;3.03;1.45;;;4.60;99.90;;;;;;5061339;28;20151;-65
2023/01/30 00:54:12;;;;;;;12.30;1.73;;;4.60;99.90;;;;;;5070743;28;20045;-66
2023/01/30 00:56:39;;;;;;;3.92;1.60;;;4.60;99.90;;;;;;5058573;28;20491;-66
2023/01/30 00:59:06;;;;;;;8.38;1.85;;;4.50;99.90;;;;;;5062771;28;20463;-67
2023/01/30 01:01:33;;;;;;;3.83;2.38;;;4.50;99.90;;;;;;5059962;28;20213;-65
2023/01/30 01:04:00;;;;;;;6.07;2.53;;;4.60;99.90;;;;;;5061431;28;20109;-69
2023/01/30 01:06:27;;;;;;;5.85;1.63;;;4.50;99.90;;;;;;5059319;28;20391;-64
2023/01/30 01:08:55;;;;;;;5.57;1.70;;;4.50;99.90;;;;;;5059119;28;20049;-64
2023/01/30 01:11:25;;;;;;;4.47;2.05;;;4.50;99.90;;;;;;5060367;28;20059;-65
2023/01/30 01:13:58;;;;;;;9.57;2.10;;;4.50;99.90;;;;;;5062660;28;20505;-71
2023/01/30 01:16:27;;;;;;;3.30;1.23;;;4.50;99.90;;;;;;5071321;28;20045;-64
2023/01/30 01:18:57;;;;;;;7.38;1.55;;;4.60;99.90;;;;;;5050872;28;20113;-66
2023/01/30 01:21:24;;;;;;;7.13;1.80;;;4.60;99.90;;;;;;5060084;28;20138;-66
2023/01/30 01:23:54;;;;;;;3.25;1.83;;;4.60;99.90;;;;;;5058053;28;20627;-65
2023/01/30 01:26:21;;;;;;;3.05;1.58;;;4.60;99.90;;;;;;5061755;28;20114;-65
2023/01/30 01:28:48;;;;;;;3.60;1.40;;;4.60;99.90;;;;;;5061156;28;20053;-66
2023/01/30 01:31:16;;;;;;;4.97;1.42;;;4.60;99.90;;;;;;5057211;28;20378;-64
2023/01/30 01:33:43;;;;;;;8.32;2.10;;;4.70;99.90;;;;;;5060797;28;20136;-67
2023/01/30 01:36:10;;;;;;;6.13;1.30;;;4.60;99.90;;;;;;5059483;28;20134;-67
2023/01/30 01:38:45;;;;;;;5.32;1.45;;;4.60;99.90;;;;;;5059168;28;20055;-65
2023/01/30 01:41:15;;;;;;;3.22;1.50;;;4.60;99.90;;;;;;5063193;28;20045;-64
2023/01/30 01:44:07;;;;;;;3.65;1.67;;;4.70;99.90;;;;;;5052829;28;20162;-64
2023/01/30 01:46:57;;;;;;;7.78;1.48;;;4.70;99.90;;;;;;5059621;28;20834;-66
2023/01/30 01:49:32;;;;;;;2.33;1.17;;;4.70;99.90;;;;;;5064459;28;20052;-64
2023/01/30 01:52:07;;;;;;;1.98;1.30;;;4.70;99.90;;;;;;5056929;28;20041;-65
2023/01/30 01:54:54;;;;;;;4.40;2.42;;;4.70;99.90;;;;;;5063729;28;20052;-65
2023/01/30 01:57:43;;;;;;;3.45;1.95;;;4.70;99.90;;;;;;5064392;28;20485;-64
2023/01/30 02:00:16;;;;;;;4.55;1.48;;;4.70;99.90;;;;;;5063988;28;20047;-66
2023/01/30 02:02:48;;;;;;;7.25;1.40;;;4.70;99.90;;;;;;5063800;28;20088;-66
2023/01/30 02:05:18;;;;;;;3.72;1.50;;;4.70;99.90;;;;;;5056826;28;20067;-67
2023/01/30 02:08:06;;;;;;;2.90;1.10;;;4.70;99.90;;;;;;5063086;28;20343;-67
2023/01/30 02:10:59;;;;;;;7.85;1.80;;;4.70;99.90;;;;;;5056983;28;20502;-64
2023/01/30 02:13:27;;;;;;;4.72;1.60;;;4.70;99.90;;;;;;5061274;28;20052;-65
2023/01/30 02:15:59;;;;;;;4.28;3.65;;;4.70;99.90;;;;;;5064026;28;20127;-64
2023/01/30 02:18:28;;;;;;;6.93;1.75;;;4.70;99.90;;;;;;5058182;28;20150;-65
2023/01/30 02:21:20;;;;;;;4.60;1.50;;;4.70;99.90;;;;;;5062258;28;20048;-64
2023/01/30 02:24:06;;;;;;;3.67;1.10;;;4.60;99.90;;;;;;5078987;28;20125;-65
2023/01/30 02:26:51;;;;;;;3.40;1.50;;;4.70;99.90;;;;;;5064430;28;20786;-65
2023/01/30 02:29:55;;;;;;;2.67;1.70;;;4.60;99.90;;;;;;5061859;28;20044;-66
2023/01/30 02:33:00;;;;;;;3.45;1.13;;;4.60;99.90;;;;;;5059155;28;20053;-65
2023/01/30 02:35:53;;;;;;;3.65;1.42;;;4.60;99.90;;;;;;5062129;28;20488;-66
2023/01/30 02:38:37;;;;;;;5.00;1.15;;;4.60;99.90;;;;;;5063141;28;20056;-65
2023/01/30 02:41:33;;;;;;;5.70;2.47;;;4.60;99.90;;;;;;5058316;28;20126;-64
2023/01/30 02:44:11;;;;;;;2.00;1.48;;;4.60;99.90;;;;;;5077889;28;20119;-65
2023/01/30 02:46:49;;;;;;;5.78;2.30;;;4.60;99.90;;;;;;5059623;28;20553;-67
2023/01/30 02:49:29;;;;;;;7.28;1.85;;;4.60;99.90;;;;;;5059732;28;20055;-67
2023/01/30 02:51:59;;;;;;;9.63;6.90;;;4.60;99.90;;;;;;5055045;28;20049;-67
2023/01/30 02:54:26;;;;;;;5.53;1.93;;;4.50;99.90;;;;;;5060526;28;20974;-65
2023/01/30 02:56:57;;;;;;;3.65;1.40;;;4.50;99.90;;;;;;5057273;28;20127;-64
2023/01/30 02:59:43;;;;;;;7.22;2.03;;;4.50;99.90;;;;;;5058816;28;20048;-63
2023/01/30 03:02:26;;;;;;;3.28;1.23;;;4.50;99.90;;;;;;5060686;28;20072;-65
2023/01/30 03:05:05;;;;;;;4.05;2.15;;;4.50;99.90;;;;;;5058759;28;20072;-64
2023/01/30 03:07:33;;;;;;;3.83;1.23;;;4.50;99.90;;;;;;5060189;28;20063;-66
2023/01/30 03:10:28;;;;;;;1.88;1.13;;;4.50;99.90;;;;;;5060108;28;20128;-64
2023/01/30 03:13:26;;;;;;;6.53;2.38;;;4.50;99.90;;;;;;5056386;28;20074;-63
2023/01/30 03:16:04;;;;;;;6.07;1.38;;;4.50;99.90;;;;;;5054531;28;20055;-65
2023/01/30 03:18:31;;;;;;;5.00;1.52;;;4.50;99.90;;;;;;5057791;28;20049;-64
2023/01/30 03:21:04;;;;;;;4.57;1.80;;;4.50;99.90;;;;;;5056390;28;20106;-66
2023/01/30 03:23:31;;;;;;;3.42;1.25;;;4.60;99.90;;;;;;5062610;28;20044;-64
2023/01/30 03:26:00;;;;;;;4.57;1.55;;;4.60;99.90;;;;;;5062857;28;20164;-63
2023/01/30 03:28:27;;;;;;;1.90;1.20;;;4.70;99.90;;;;;;5062394;28;20094;-63
2023/01/30 03:30:54;;;;;;;6.90;1.45;;;4.70;99.90;;;;;;5056638;28;20209;-63
2023/01/30 03:33:21;;;;;;;3.08;1.77;;;4.80;99.90;;;;;;5056080;28;20074;-69
2023/01/30 03:35:51;;;;;;;4.22;2.17;;;4.80;99.90;;;;;;5063384;28;20053;-64
2023/01/30 03:38:18;;;;;;;2.53;1.75;;;4.70;99.90;;;;;;5056574;28;20048;-64
2023/01/30 03:40:48;;;;;;;1.27;0.93;;;4.70;99.90;;;;;;5061640;28;20055;-64
2023/01/30 03:43:15;;;;;;;3.08;0.90;;;4.70;99.90;;;;;;5059169;28;20049;-68
2023/01/30 03:45:42;;;;;;;3.85;1.20;;;4.70;99.90;;;;;;5060392;28;20056;-64
2023/01/30 03:48:09;;;;;;;4.75;1.42;;;4.70;99.90;;;;;;5059158;28;20114;-64
2023/01/30 03:50:36;;;;;;;5.75;1.20;;;4.80;99.90;;;;;;5059524;28;20185;-67
2023/01/30 03:53:03;;;;;;;4.53;0.90;;;4.80;99.90;;;;;;5056860;28;20102;-64
2023/01/30 03:55:30;;;;;;;0.95;0.55;;;4.80;99.90;;;;;;5064687;28;20375;-63
2023/01/30 03:57:57;;;;;;;3.38;0.80;;;4.80;99.90;;;;;;5058940;28;20394;-65
2023/01/30 04:00:27;;;;;;;2.55;0.85;;;4.80;99.90;;;;;;5059560;28;20137;-66
2023/01/30 04:02:55;;;;;;;3.20;0.82;;;4.80;99.90;;;;;;5057987;28;20134;-65
2023/01/30 04:05:22;;;;;;;1.58;1.23;;;4.90;99.90;;;;;;5059829;28;20160;-63
2023/01/30 04:07:57;;;;;;;3.90;0.50;;;4.90;99.90;;;;;;5076237;28;20072;-67
2023/01/30 04:10:25;;;;;;;3.40;0.85;;;4.90;99.90;;;;;;5057022;28;20118;-64
2023/01/30 04:12:52;;;;;;;1.42;0.68;;;4.90;99.90;;;;;;5055159;28;20058;-67
2023/01/30 04:15:20;;;;;;;4.50;0.60;;;4.90;99.90;;;;;;5059757;28;20440;-64
2023/01/30 04:18:00;;;;;;;3.60;1.23;;;4.90;99.90;;;;;;5058719;28;20122;-65
2023/01/30 04:20:46;;;;;;;2.42;0.60;;;4.90;99.90;;;;;;5057532;28;20419;-66
2023/01/30 04:23:14;;;;;;;4.00;1.30;;;4.90;99.90;;;;;;5058060;28;20048;-65
2023/01/30 04:25:45;;;;;;;7.28;1.60;;;4.90;99.90;;;;;;5056792;28;20129;-64
2023/01/30 04:28:15;;;;;;;4.35;1.35;;;4.90;99.90;;;;;;5060898;28;20060;-66
2023/01/30 04:30:43;;;;;;;6.90;1.15;;;4.80;99.90;;;;;;5053561;28;20123;-66
2023/01/30 04:33:34;;;;;;;2.92;1.02;;;4.80;99.90;;;;;;5028831;28;20134;-64
2023/01/30 04:36:03;;;;;;;3.50;1.17;;;4.80;99.90;;;;;;5059623;28;20044;-63
2023/01/30 04:38:31;;;;;;;5.03;1.08;;;4.80;99.90;;;;;;5072306;28;20055;-64
2023/01/30 04:40:59;;;;;;;6.95;1.52;;;4.70;99.90;;;;;;5056930;28;20048;-65
2023/01/30 04:43:29;;;;;;;6.35;1.02;;;4.70;99.90;;;;;;5054014;28;20548;-65
2023/01/30 04:46:08;;;;;;;7.35;0.68;;;4.70;99.90;;;;;;5060225;28;20078;-66
2023/01/30 04:48:34;;;;;;;5.00;1.30;;;4.70;99.90;;;;;;5059531;28;20056;-67
2023/01/30 04:51:02;;;;;;;1.55;1.10;;;4.70;99.90;;;;;;5062127;28;20044;-63
2023/01/30 04:53:28;;;;;;;5.30;1.38;;;4.60;99.90;;;;;;5062411;28;20478;-63
2023/01/30 04:55:56;;;;;;;4.35;1.67;;;4.60;99.90;;;;;;5063472;28;20071;-67
2023/01/30 04:58:23;;;;;;;11.50;3.28;;;4.60;99.90;;;;;;5062525;28;20045;-65
2023/01/30 05:00:50;;;;;;;5.25;1.40;;;4.60;99.90;;;;;;5051682;28;20167;-65
2023/01/30 05:03:17;;;;;;;6.75;1.17;;;4.50;99.90;;;;;;5060884;28;20106;-63
2023/01/30 05:05:47;;;;;;;7.63;1.90;;;4.50;99.90;;;;;;5062961;28;20068;-64
2023/01/30 05:08:14;;;;;;;;;;;4.40;99.90;;;;;;5061291;28;20139;-65
2023/01/30 05:10:41;;;;;;;6.38;1.48;;;4.40;99.90;;;;;;5060190;28;19921;-64
2023/01/30 05:13:08;;;;;;;6.22;1.52;;;4.40;99.90;;;;;;5058891;28;20072;-65
2023/01/30 05:15:35;;;;;;;11.52;2.10;;;4.30;99.90;;;;;;5055501;28;20219;-65
2023/01/30 05:18:02;;;;;;;3.17;1.15;;;4.30;99.90;;;;;;5059284;28;20125;-69
2023/01/30 05:20:29;;;;;;;6.10;1.20;;;4.30;99.90;;;;;;5063199;28;20041;-65
2023/01/30 05:22:56;;;;;;;9.65;2.35;;;4.30;99.90;;;;;;5055275;28;20064;-63
2023/01/30 05:25:22;;;;;;;7.85;1.88;;;4.20;99.90;;;;;;5065063;28;20067;-68
2023/01/30 05:27:49;;;;;;;4.30;2.28;;;4.20;99.90;;;;;;5066477;28;20098;-63
2023/01/30 05:30:16;;;;;;;6.20;1.85;;;4.30;99.90;;;;;;5064827;28;20096;-64
2023/01/30 05:32:43;;;;;;;7.13;1.38;;;4.30;99.90;;;;;;5064415;28;20052;-68
2023/01/30 05:35:10;;;;;;;6.20;2.33;;;4.20;99.90;;;;;;5064594;28;20043;-63
2023/01/30 05:37:37;;;;;;;11.43;2.03;;;4.20;99.90;;;;;;5065340;28;20480;-66
2023/01/30 05:40:05;;;;;;;9.98;2.08;;;4.20;99.90;;;;;;5064199;28;20127;-67
2023/01/30 05:42:32;;;;;;;20.90;4.88;;;4.20;99.90;;;;;;5066474;28;20054;-63
2023/01/30 05:44:59;;;;;;;19.13;3.28;;;4.20;99.90;;;;;;5059211;28;20064;-64
2023/01/30 05:47:26;;;;;;;10.35;3.05;;;4.20;99.90;;;;;;5063845;28;20064;-66
2023/01/30 05:49:53;;;;;;;14.00;3.45;;;4.20;99.90;;;;;;5064540;28;20106;-68
2023/01/30 05:52:20;;;;;;;18.10;3.47;;;4.20;99.90;;;;;;5064000;28;20127;-65
2023/01/30 05:54:47;;;;;;;18.27;3.13;;;4.20;99.90;;;;;;5064401;28;20049;-69
2023/01/30 05:57:13;;;;;;;25.35;3.55;;;4.20;99.90;;;;;;5058475;28;20041;-65
2023/01/30 05:59:40;;;;;;;17.02;3.78;;;4.20;99.90;;;;;;5061414;28;20055;-70
2023/01/30 06:02:07;;;;;;;20.63;3.70;;;4.20;99.90;;;;;;5065365;28;20140;-70
2023/01/30 06:04:36;;;;;;;12.80;2.85;;;4.20;99.90;;;;;;5064101;28;20040;-65
2023/01/30 06:07:03;;;;;;;12.30;3.17;;;4.20;99.90;;;;;;5064854;28;20056;-64
2023/01/30 06:09:30;;;;;;;15.98;3.55;;;4.20;99.90;;;;;;5064410;28;20076;-67
2023/01/30 06:11:57;;;;;;;16.05;2.60;;;4.20;99.90;;;;;;5065084;28;20170;-64
2023/01/30 06:14:24;;;;;;;12.88;3.72;;;4.20;99.90;;;;;;5062260;28;20131;-68
2023/01/30 06:16:50;;;;;;;18.02;4.55;;;4.20;99.90;;;;;;5062958;28;20052;-69
2023/01/30 06:19:17;;;;;;;15.02;4.38;;;4.20;99.90;;;;;;5063321;28;20032;-68
2023/01/30 06:21:44;;;;;;;17.52;3.38;;;4.20;99.90;;;;;;5065122;28;20041;-63
2023/01/30 06:24:11;;;;;;;10.40;3.38;;;4.20;99.90;;;;;;5064289;28;20083;-67
2023/01/30 06:26:38;;;;;;;13.75;3.78;;;4.20;99.90;;;;;;5063856;28;20053;-66
2023/01/30 06:29:05;;;;;;;14.10;3.30;;;4.20;99.90;;;;;;5062403;28;20120;-65
2023/01/30 06:31:32;;;;;;;19.25;3.13;;;4.10;99.90;;;;;;5063781;28;20067;-65
2023/01/30 06:33:59;;;;;;;16.17;4.55;;;4.20;99.90;;;;;;5061678;28;20067;-64
2023/01/30 06:36:26;;;;;;;19.20;5.00;;;4.10;99.90;;;;;;5060878;28;20071;-65
2023/01/30 06:38:53;;;;;;;17.77;3.22;;;4.20;99.90;;;;;;5062764;28;20102;-65
2023/01/30 06:41:20;;;;;;;11.77;3.15;;;4.20;99.90;;;;;;5059731;28;20056;-64
2023/01/30 06:43:47;;;;;;;21.88;3.25;;;4.10;99.90;;;;;;5065282;28;20099;-63
2023/01/30 06:46:13;;;;;;;13.85;2.75;;;4.20;99.90;;;;;;5063126;28;20071;-67
2023/01/30 06:48:40;;;;;;;21.65;2.72;;;4.10;99.90;;;;;;5061794;28;20480;-69
2023/01/30 06:51:07;;;;;;;17.38;3.97;;;4.20;99.90;;;;;;5060275;28;20056;-63
2023/01/30 06:53:34;;;;;;;15.88;3.97;;;4.10;99.90;;;;;;5062556;28;20072;-64
2023/01/30 06:56:01;;;;;;;16.38;4.32;;;4.20;99.90;;;;;;5068855;28;20052;-70
2023/01/30 06:58:28;;;;;;;19.65;4.22;;;4.10;99.90;;;;;;5061489;28;20048;-63
2023/01/30 07:00:55;;;;;;;14.27;4.15;;;4.10;99.90;;;;;;5057202;28;20053;-69
2023/01/30 07:03:22;;;;;;;12.73;2.67;;;4.10;99.90;;;;;;5064279;28;20495;-67
2023/01/30 07:05:49;;;;;;;16.60;3.60;;;4.10;99.90;;;;;;5061194;28;20128;-63
2023/01/30 07:08:16;;;;;;;19.05;4.28;;;4.10;99.90;;;;;;5063788;28;20071;-65
2023/01/30 07:10:43;;;;;;;16.95;4.28;;;4.10;99.90;;;;;;5061565;28;20052;-64
2023/01/30 07:13:11;;;;;;;8.88;2.60;;;4.10;99.90;;;;;;5064798;28;20059;-63
2023/01/30 07:15:38;;;;;;;17.35;4.25;;;4.10;99.90;;;;;;5061269;28;20134;-67
2023/01/30 07:18:04;;;;;;;20.88;4.13;;;4.10;99.90;;;;;;5062825;28;20072;-69
2023/01/30 07:20:32;;;;;;;12.95;2.75;;;4.10;99.90;;;;;;5062067;28;20517;-65
2023/01/30 07:22:59;;;;;;;16.77;3.92;;;4.10;99.90;;;;;;5059924;28;20044;-65
2023/01/30 07:25:27;;;;;;;18.17;4.03;;;4.10;99.90;;;;;;5058431;28;20590;-63
2023/01/30 07:27:59;;;;;;;15.75;4.05;;;4.10;99.90;;;;;;5063115;28;20128;-64
2023/01/30 07:30:29;;;;;;;16.02;3.45;;;4.10;99.90;;;;;;5056973;28;20601;-64
2023/01/30 07:32:58;;;;;;;23.30;4.88;;;4.10;99.90;;;;;;5060335;28;20044;-63
2023/01/30 07:35:26;;;;;;;13.52;3.63;;;4.00;99.90;;;;;;5059844;28;20048;-67
2023/01/30 07:37:53;;;;;;;12.75;2.67;;;4.10;99.90;;;;;;5061419;28;20129;-67
2023/01/30 07:40:21;;;;;;;10.60;3.30;;;4.10;99.90;;;;;;5060865;28;20048;-64
2023/01/30 07:42:55;;;;;;;22.58;4.22;;;4.10;99.90;;;;;;5059681;28;20129;-63
2023/01/30 07:45:23;;;;;;;31.13;8.75;;;4.00;99.90;;;;;;5059576;28;20434;-63
2023/01/30 07:47:50;;;;;;;36.78;5.68;;;4.10;99.90;;;;;;5059639;28;20061;-64
2023/01/30 07:50:17;;;;;;;58.65;8.75;;;4.10;99.90;;;;;;5051163;28;20102;-64
2023/01/30 07:52:44;;;;;;;95.68;18.17;;;4.10;99.90;;;;;;5058953;28;20099;-65
2023/01/30 07:55:11;;;;;;;130.48;24.50;;;4.00;99.90;;;;;;5060663;28;20048;-63
2023/01/30 07:57:38;;;;;;;21.63;5.28;;;4.00;99.90;;;;;;5061593;28;20060;-66
2023/01/30 08:00:06;;;;;;;16.83;2.78;;;4.00;99.90;;;;;;5056033;28;20386;-64
2023/01/30 08:02:34;;;;;;;19.58;4.50;;;4.00;99.90;;;;;;5061247;28;20052;-64
2023/01/30 08:05:01;;;;;;;17.20;4.63;;;4.00;99.90;;;;;;5059540;28;20106;-66
2023/01/30 08:07:31;;;;;;;;;;;4.00;99.90;;;;;;5062608;28;20049;-63
2023/01/30 08:09:58;;;;;;;34.08;4.88;;;4.00;99.90;;;;;;5061127;28;20326;-65
2023/01/30 08:12:25;;;;;;;14.85;3.20;;;4.00;99.90;;;;;;5056319;28;20067;-64
2023/01/30 08:14:52;;;;;;;20.27;4.10;;;4.00;99.90;;;;;;5055959;28;20045;-64
2023/01/30 08:17:19;;;;;;;17.88;4.95;;;4.00;99.90;;;;;;5058141;28;20179;-65
2023/01/30 08:19:45;;;;;;;29.30;4.60;;;4.00;99.90;;;;;;5056942;28;20374;-66
2023/01/30 08:22:13;;;;;;;15.65;3.40;;;4.00;99.90;;;;;;5056502;28;20040;-65
2023/01/30 08:24:40;;;;;;;15.40;3.50;;;4.00;99.90;;;;;;5056219;28;20143;-66
2023/01/30 08:27:07;;;;;;;19.00;4.55;;;4.00;99.90;;;;;;5061975;28;20144;-66
2023/01/30 08:29:34;;;;;;;16.83;3.75;;;4.00;99.90;;;;;;5057474;28;20080;-66
2023/01/30 08:32:01;;;;;;;21.70;4.20;;;4.00;99.90;;;;;;5062431;28;20063;-64
2023/01/30 08:34:28;;;;;;;14.02;3.00;;;4.00;99.90;;;;;;5059255;28;20048;-65
2023/01/30 08:36:55;;;;;;;15.82;3.60;;;4.00;99.90;;;;;;5061797;28;20123;-64
2023/01/30 08:39:22;;;;;;;19.73;6.22;;;4.00;99.90;;;;;;5062939;28;20055;-64
2023/01/30 08:41:48;;;;;;;19.80;4.30;;;4.00;99.90;;;;;;5060570;28;20131;-64
2023/01/30 08:44:15;;;;;;;18.48;5.30;;;4.00;99.90;;;;;;5061697;28;20048;-67
2023/01/30 08:46:42;;;;;;;19.33;4.70;;;4.10;99.90;;;;;;5059193;28;20545;-69
2023/01/30 08:49:10;;;;;;;23.85;4.65;;;4.10;99.90;;;;;;5060996;28;20043;-67
2023/01/30 08:51:37;;;;;;;10.13;3.35;;;4.10;99.90;;;;;;5059512;28;20048;-66
2023/01/30 08:54:06;;;;;;;14.73;3.95;;;4.10;99.90;;;;;;5062798;28;20045;-64
2023/01/30 08:56:33;;;;;;;16.73;3.53;;;4.10;99.90;;;;;;5060484;28;20565;-67
2023/01/30 08:59:00;;;;;;;27.42;4.57;;;4.10;99.90;;;;;;5057416;28;20566;-65
2023/01/30 09:01:27;;;;;;;24.20;4.35;;;4.10;99.90;;;;;;5058692;28;20053;-63
2023/01/30 09:03:54;;;;;;;17.67;3.63;;;4.10;99.90;;;;;;5061807;28;20098;-65
2023/01/30 09:06:21;;;;;;;21.60;4.45;;;4.10;99.90;;;;;;5061262;28;20140;-64
2023/01/30 09:08:51;;;;;;;12.00;2.70;;;4.10;99.90;;;;;;5060062;28;20051;-64
2023/01/30 09:11:18;;;;;;;18.75;3.50;;;4.20;99.90;;;;;;5062861;28;20044;-64
2023/01/30 09:13:45;;;;;;;15.90;3.08;;;4.10;99.90;;;;;;5062375;28;20132;-70
2023/01/30 09:16:15;;;;;;;18.65;3.45;;;4.10;99.90;;;;;;5056543;28;20359;-66
2023/01/30 09:18:43;;;;;;;13.88;4.28;;;4.10;99.90;;;;;;5061133;28;20061;-71
2023/01/30 09:21:11;;;;;;;16.90;3.35;;;4.20;99.90;;;;;;5060432;28;20048;-67
2023/01/30 09:23:38;;;;;;;17.73;5.00;;;4.20;99.90;;;;;;5061557;28;20050;-67
2023/01/30 09:26:05;;;;;;;17.65;3.40;;;4.20;99.90;;;;;;5061314;28;20041;-68
2023/01/30 09:28:32;;;;;;;16.83;4.07;;;4.20;99.90;;;;;;5061912;28;20064;-63
2023/01/30 09:31:00;;;;;;;18.02;3.53;;;4.20;99.90;;;;;;5059710;28;20047;-64
2023/01/30 09:33:28;;;;;;;17.85;4.20;;;4.20;99.90;;;;;;5061763;28;20068;-67
2023/01/30 09:35:55;;;;;;;12.25;3.30;;;4.20;99.90;;;;;;5061940;28;20073;-63
2023/01/30 09:38:22;;;;;;;13.23;3.30;;;4.20;99.90;;;;;;5060889;28;20045;-64
2023/01/30 09:40:58;;;;;;;13.50;3.03;;;4.20;99.90;;;;;;5059280;28;20144;-65
2023/01/30 09:43:47;;;;;;;18.60;4.93;;;4.20;99.90;;;;;;5061292;28;20057;-64
2023/01/30 09:46:33;;;;;;;19.38;4.00;;;4.20;99.90;;;;;;5060750;28;20573;-66
2023/01/30 09:49:24;;;;;;;18.85;3.33;;;4.20;99.90;;;;;;5059019;28;20052;-63
2023/01/30 09:52:22;;;;;;;17.52;3.80;;;4.20;99.90;;;;;;5060827;28;20094;-64
2023/01/30 09:54:53;;;;;;;24.02;4.15;;;4.20;99.90;;;;;;5059126;28;20136;-67
2023/01/30 09:57:23;;;;;;;14.50;3.45;;;4.20;99.90;;;;;;5059770;28;20040;-64
2023/01/30 10:00:16;;;;;;;18.08;3.53;;;4.20;99.90;;;;;;5060353;28;20131;-66
2023/01/30 10:03:09;;;;;;;18.67;5.10;;;4.30;99.90;;;;;;5059658;28;20083;-64
2023/01/30 10:05:50;;;;;;;16.48;3.05;;;4.30;99.90;;;;;;5057629;28;20565;-69
2023/01/30 10:08:41;;;;;;;18.80;3.33;;;4.30;99.90;;;;;;5061978;28;20131;-64
2023/01/30 10:11:19;;;;;;;11.27;3.25;;;4.30;99.90;;;;;;5060943;28;20079;-65
2023/01/30 10:14:22;;;;;;;21.08;3.60;;;4.30;99.90;;;;;;5065383;28;20050;-67
2023/01/30 10:17:23;;;;;;;21.23;4.70;;;4.30;99.90;;;;;;5062903;28;20058;-65
2023/01/30 10:20:18;;;;;;;15.40;3.00;;;4.30;99.90;;;;;;5065124;28;20553;-64
2023/01/30 10:23:01;;;;;;;10.05;2.50;;;4.30;99.90;;;;;;5064168;28;20056;-67
2023/01/30 10:25:49;;;;;;;14.63;3.15;;;4.20;99.90;;;;;;5063772;28;20139;-67
2023/01/30 10:28:30;;;;;;;15.90;3.28;;;4.20;99.90;;;;;;5063213;28;20740;-65
2023/01/30 10:31:10;;;;;;;17.23;4.05;;;4.20;99.90;;;;;;5057953;28;20072;-64
2023/01/30 10:33:58;;;;;;;15.57;3.22;;;4.20;99.90;;;;;;5060904;28;20049;-64
2023/01/30 10:36:35;;;;;;;11.63;4.20;;;4.20;99.90;;;;;;5064639;28;20198;-64
2023/01/30 10:39:19;;;;;;;9.68;2.92;;;4.20;99.90;;;;;;5059787;28;20072;-63
2023/01/30 10:42:12;;;;;;;15.85;3.03;;;4.30;99.90;;;;;;5061562;28;20072;-65
2023/01/30 10:44:41;;;;;;;11.98;3.28;;;4.30;99.90;;;;;;5057098;28;20453;-70
2023/01/30 10:47:17;;;;;;;19.27;3.00;;;4.40;99.90;;;;;;5060423;28;20532;-63
2023/01/30 10:49:48;;;;;;;15.10;3.33;;;4.40;99.90;;;;;;5060104;28;20490;-63
2023/01/30 10:52:33;;;;;;;21.98;3.38;;;4.40;99.90;;;;;;5061187;28;20140;-67
2023/01/30 10:55:12;;;;;;;17.13;3.95;;;4.40;99.90;;;;;;5059271;28;20048;-64
2023/01/30 10:57:57;;;;;;;11.32;2.83;;;4.40;99.90;;;;;;5057480;28;20052;-68
2023/01/30 11:00:36;;;;;;;18.20;4.28;;;4.40;99.90;;;;;;5059882;28;20062;-68
2023/01/30 11:03:14;;;;;;;8.90;4.97;;;4.40;99.90;;;;;;5058562;28;20056;-63
2023/01/30 11:05:49;;;;;;;19.45;6.70;;;4.40;99.90;;;;;;5058770;28;20064;-66
2023/01/30 11:08:25;;;;;;;7.07;2.67;;;4.50;99.90;;;;;;5063779;28;20090;-64
2023/01/30 11:10:53;;;;;;;11.23;2.65;;;4.40;99.90;;;;;;5060131;28;20504;-67
2023/01/30 11:13:29;;;;;;;20.33;3.58;;;4.40;99.90;;;;;;5060956;28;20131;-73
2023/01/30 11:16:05;;;;;;;13.50;2.88;;;4.50;99.90;;;;;;5058762;28;20104;-63
2023/01/30 11:18:32;;;;;;;17.23;3.55;;;4.50;99.90;;;;;;5060730;28;20059;-63
2023/01/30 11:21:28;;;;;;;9.55;2.70;;;4.50;99.90;;;;;;5058351;28;20465;-61
2023/01/30 11:24:22;;;;;;;18.17;2.30;;;4.50;99.90;;;;;;5057376;28;20056;-65
2023/01/30 11:26:51;;;;;;;21.80;3.13;;;4.50;99.90;;;;;;5059904;28;20143;-63
2023/01/30 11:29:28;;;;;;;10.52;2.40;;;4.60;99.90;;;;;;5063185;28;20052;-62
2023/01/30 11:31:59;;;;;;;10.75;2.60;;;4.60;99.90;;;;;;5063060;28;20040;-62
2023/01/30 11:34:26;;;;;;;22.75;3.40;;;4.60;99.90;;;;;;5061065;28;20482;-63
2023/01/30 11:37:21;;;;;;;14.40;2.97;;;4.60;99.90;;;;;;5056610;28;20045;-62
2023/01/30 11:39:52;;;;;;;17.83;2.30;;;4.70;99.90;;;;;;5059332;28;20052;-62
2023/01/30 11:42:23;;;;;;;;;;;4.70;99.90;;;;;;5061891;28;20540;-61
2023/01/30 11:44:56;;;;;;;10.30;2.78;;;4.80;99.90;;;;;;5055201;28;20019;-62
2023/01/30 11:47:50;;;;;;;15.10;2.63;;;4.80;99.90;;;;;;5057195;28;20045;-66
2023/01/30 11:50:40;;;;;;;13.77;3.90;;;4.90;99.90;;;;;;5059235;28;20440;-64
2023/01/30 11:53:30;;;;;;;20.30;4.55;;;4.90;99.90;;;;;;5056712;28;20052;-66
2023/01/30 11:56:04;;;;;;;14.40;3.08;;;4.90;99.90;;;;;;5061098;28;20048;-64
2023/01/30 11:58:38;;;;;;;16.45;4.57;;;5.00;99.90;;;;;;5062097;28;20118;-65
2023/01/30 12:01:08;;;;;;;11.52;3.92;;;5.00;99.90;;;;;;5057045;28;20056;-62
2023/01/30 12:03:44;;;;;;;10.57;4.50;;;5.10;99.90;;;;;;5060373;28;20449;-64
2023/01/30 12:06:19;;;;;;;15.90;2.47;;;5.10;99.90;;;;;;5060587;28;20143;-66
2023/01/30 12:08:51;;;;;;;12.13;2.80;;;5.20;99.90;;;;;;5059787;28;20041;-63
2023/01/30 12:11:46;;;;;;;7.55;2.08;;;5.20;99.90;;;;;;5060641;28;20060;-66
2023/01/30 12:14:20;;;;;;;20.08;4.78;;;5.20;99.90;;;;;;5058943;28;20467;-69
2023/01/30 12:16:56;;;;;;;14.35;2.75;;;5.30;99.90;;;;;;5058825;28;20431;-62
2023/01/30 12:19:29;;;;;;;13.00;3.55;;;5.30;99.90;;;;;;5060101;28;20053;-64
2023/01/30 12:22:06;;;;;;;11.25;2.63;;;5.30;99.90;;;;;;5060524;28;20538;-64
2023/01/30 12:24:44;;;;;;;11.23;1.90;;;5.30;99.90;;;;;;5059576;28;20182;-64
2023/01/30 12:27:47;;;;;;;14.70;3.58;;;5.30;99.90;;;;;;5058388;28;20064;-67
2023/01/30 12:30:43;;;;;;;33.55;3.40;;;5.20;99.90;;;;;;5059551;28;20502;-65
2023/01/30 12:33:14;;;;;;;19.45;2.85;;;5.10;99.90;;;;;;5056000;28;20044;-65
2023/01/30 12:36:10;;;;;;;12.10;3.95;;;5.00;99.90;;;;;;5061045;28;20778;-68
2023/01/30 12:39:15;;;;;;;11.73;2.35;;;5.00;99.90;;;;;;5059504;28;20044;-64
2023/01/30 12:41:44;;;;;;;13.40;2.30;;;4.90;99.90;;;;;;5059010;28;20079;-68
2023/01/30 12:44:29;;;;;;;13.73;2.63;;;4.90;99.90;;;;;;5061944;28;20063;-64
2023/01/30 12:47:17;;;;;;;8.60;2.10;;;4.80;99.90;;;;;;5059374;28;20052;-66
2023/01/30 12:50:13;;;;;;;8.23;2.13;;;4.80;99.90;;;;;;5060899;28;20112;-63
2023/01/30 12:53:01;;;;;;;19.08;3.28;;;4.80;99.90;;;;;;5059679;28;20117;-65
2023/01/30 12:55:37;;;;;;;8.52;1.90;;;4.70;99.90;;;;;;5059539;28;20084;-64
2023/01/30 12:58:27;;;;;;;10.98;2.47;;;4.70;99.90;;;;;;5061327;28;20098;-64
2023/01/30 13:01:41;;;;;;;15.57;2.42;;;4.70;99.90;;;;;;5058276;28;20051;-63
2023/01/30 13:04:33;;;;;;;17.70;3.47;;;4.70;99.90;;;;;;4998025;28;20107;-64
2023/01/30 13:07:17;;;;;;;18.65;4.03;;;4.80;99.90;;;;;;5057647;28;20127;-64
2023/01/30 13:10:08;;;;;;;13.43;2.22;;;4.80;99.90;;;;;;5060796;28;20159;-64
2023/01/30 13:13:09;;;;;;;29.35;3.10;;;4.90;99.90;;;;;;5053967;28;20114;-66
2023/01/30 13:15:54;;;;;;;;;;;4.80;99.90;;;;;;5042867;28;20052;-64
2023/01/30 13:18:31;;;;;;;22.40;3.40;;;4.80;99.90;;;;;;5060170;28;19978;-65
2023/01/30 13:21:24;;;;;;;11.25;1.73;;;4.80;99.90;;;;;;5058992;28;20158;-63
2023/01/30 13:24:06;;;;;;;18.35;3.28;;;4.80;99.90;;;;;;5061074;28;20136;-65
2023/01/30 13:26:35;;;;;;;11.35;2.38;;;4.80;99.90;;;;;;5058738;28;20368;-63
2023/01/30 13:29:15;;;;;;;17.23;2.83;;;4.70;99.90;;;;;;5058088;28;20044;-64
2023/01/30 13:31:52;;;;;;;15.00;3.38;;;4.70;99.90;;;;;;5060051;28;20423;-68